Time;durP1;ratioP1;P1;durP2;ratioP2;P2;SDS_P1;SDS_P2;PMS_P1;PMS_P2;Temp;Humidity;BMP_temperature;BMP_pressure;BME280_temperature;BME280_humidity;BME280_pressure;Samples;Min_cycle;Max_cycle;Signal;HPM_P1;HPM_P2
2022/07/15 00:01:45;;;;;;;;;7.33;7.00;;;;;22.18;44.00;101376.03;4933833;28;45437;-85
2022/07/15 00:04:10;;;;;;;;;5.00;5.00;;;;;22.15;45.45;101395.03;4949997;28;45680;-85
2022/07/15 00:10:18;;;;;;;;;5.67;5.67;;;;;22.01;44.68;101385.47;4950686;28;45746;-84
2022/07/15 00:12:50;;;;;;;;;6.00;6.00;;;;;21.97;45.48;101384.63;4933236;28;45442;-84
2022/07/15 00:15:16;;;;;;;;;6.00;6.00;;;;;21.98;44.90;101379.19;4951217;28;45399;-84
2022/07/15 00:17:42;;;;;;;;;7.00;6.00;;;;;21.98;45.30;101389.16;4934015;28;47810;-84
2022/07/15 00:20:11;;;;;;;;;5.67;4.67;;;;;21.93;45.53;101397.34;4933820;28;45752;-83
2022/07/15 00:22:37;;;;;;;;;6.00;6.00;;;;;21.88;45.14;101396.59;4950553;28;45455;-84
2022/07/15 00:25:03;;;;;;;;;6.00;6.00;;;;;21.82;47.14;101398.53;4933793;28;45501;-84
2022/07/15 00:27:29;;;;;;;;;4.00;4.00;;;;;21.70;46.45;101403.28;4950695;28;46983;-84
2022/07/15 00:29:54;;;;;;;;;4.00;4.00;;;;;21.61;47.51;101403.47;4951140;28;45687;-84
2022/07/15 00:32:28;;;;;;;;;5.00;5.00;;;;;21.62;46.07;101401.69;4951557;28;44796;-84
2022/07/15 00:34:54;;;;;;;;;7.67;7.00;;;;;21.62;45.60;101407.97;4947220;28;44805;-85
2022/07/15 00:37:19;;;;;;;;;7.00;7.00;;;;;21.58;47.11;101411.69;4933888;28;46207;-85
2022/07/15 00:39:45;;;;;;;;;5.33;5.33;;;;;21.52;46.98;101398.28;4931109;28;44893;-84
2022/07/15 00:44:59;;;;;;;;;6.00;5.33;;;;;21.43;47.56;101406.56;4933437;28;45293;-84
2022/07/15 00:47:25;;;;;;;;;4.00;4.00;;;;;21.42;46.51;101407.47;4931240;28;46233;-84
2022/07/15 00:49:50;;;;;;;;;4.67;4.67;;;;;21.43;46.81;101421.00;4931977;28;45364;-85
2022/07/15 00:52:19;;;;;;;;;5.00;5.00;;;;;21.41;46.81;101417.41;4929598;28;45405;-86
2022/07/15 00:54:49;;;;;;;;;8.00;5.33;;;;;21.32;47.35;101406.75;4929890;28;45486;-85
2022/07/15 00:57:17;;;;;;;;;5.67;5.00;;;;;21.35;46.64;101428.38;4929454;28;46766;-85
2022/07/15 00:59:44;;;;;;;;;5.00;5.00;;;;;21.29;48.64;101432.06;4930879;28;45651;-85
2022/07/15 01:02:11;;;;;;;;;5.33;5.33;;;;;21.22;47.46;101430.38;4929853;28;45468;-85
2022/07/15 01:04:38;;;;;;;;;5.33;5.33;;;;;21.21;47.62;101438.53;4931016;28;45475;-86
2022/07/15 01:07:04;;;;;;;;;5.67;5.00;;;;;21.08;48.35;101427.06;4929751;28;46666;-85
2022/07/15 01:09:29;;;;;;;;;5.00;5.00;;;;;21.00;50.04;101426.31;4929093;28;45682;-85
2022/07/15 01:11:55;;;;;;;;;5.00;4.67;;;;;20.93;48.47;101437.22;4930040;28;45311;-85
2022/07/15 01:14:20;;;;;;;;;6.33;4.00;;;;;20.91;49.02;101444.47;4928507;28;45350;-85
2022/07/15 01:16:45;;;;;;;;;6.00;5.00;;;;;20.84;50.28;101433.78;4930055;28;45576;-85
2022/07/15 01:19:11;;;;;;;;;5.67;5.67;;;;;20.81;50.44;101440.16;4928082;28;45732;-84
2022/07/15 01:21:39;;;;;;;;;17.00;17.00;;;;;20.74;49.73;101444.78;4929963;28;45432;-84
2022/07/15 01:24:05;;;;;;;;;8.00;6.00;;;;;20.74;48.88;101449.28;4928581;28;45399;-84
2022/07/15 01:26:30;;;;;;;;;59.00;47.75;;;;;20.76;48.76;101460.97;4928488;28;47990;-84
2022/07/15 01:28:55;;;;;;;;;69.50;54.00;;;;;20.76;48.83;101450.13;4929918;28;45440;-85
2022/07/15 01:31:21;;;;;;;;;67.75;54.25;;;;;20.73;49.05;101458.31;4946767;28;45496;-84
2022/07/15 01:33:46;;;;;;;;;48.67;41.00;;;;;20.64;49.92;101471.97;4947720;28;45691;-83
2022/07/15 01:36:12;;;;;;;;;8.00;6.00;;;;;20.52;49.36;101448.69;4931669;28;47013;-84
2022/07/15 01:38:38;;;;;;;;;2.67;2.67;;;;;20.48;48.97;101449.66;4932128;28;45475;-85
2022/07/15 01:41:03;;;;;;;;;5.00;4.00;;;;;20.43;48.57;101444.34;4948636;28;45407;-86
2022/07/15 01:43:29;;;;;;;;;4.00;4.00;;;;;20.43;48.60;101448.84;4950536;28;45096;-84
2022/07/15 01:45:54;;;;;;;;;5.00;3.00;;;;;20.39;48.77;101445.31;4950492;28;45265;-84
2022/07/15 01:51:04;;;;;;;;;5.00;5.00;;;;;20.26;48.47;101441.00;4950476;28;44791;-85
2022/07/15 01:53:29;;;;;;;;;5.00;5.00;;;;;20.30;48.90;101454.44;4950147;28;44752;-85
2022/07/15 01:55:55;;;;;;;;;4.00;4.00;;;;;20.18;49.81;101460.91;4931926;28;48031;-85
2022/07/15 01:58:21;;;;;;;;;3.67;3.67;;;;;20.18;49.14;101465.44;4931912;28;45478;-85
2022/07/15 02:00:49;;;;;;;;;5.00;5.00;;;;;20.04;50.22;101441.31;4933619;28;45455;-85
2022/07/15 02:03:17;;;;;;;;;4.00;4.00;;;;;20.04;48.83;101451.25;4934163;28;44911;-84
2022/07/15 02:05:42;;;;;;;;;5.00;3.67;;;;;20.03;48.76;101460.22;4934097;28;47190;-85
2022/07/15 02:08:08;;;;;;;;;4.00;4.00;;;;;19.92;48.45;101433.41;4952107;28;45762;-85
2022/07/15 02:10:40;;;;;;;;;4.67;4.67;;;;;19.97;49.32;101445.88;4936958;28;45352;-85
2022/07/15 02:13:11;;;;;;;;;4.00;4.00;;;;;19.87;50.14;101436.13;4951781;28;45557;-85
2022/07/15 02:15:37;;;;;;;;;3.00;3.00;;;;;19.80;50.16;101436.25;4934825;28;46821;-85
2022/07/15 02:18:03;;;;;;;;;5.00;4.00;;;;;19.78;50.42;101434.47;4933981;28;45380;-85
2022/07/15 02:20:29;;;;;;;;;5.00;5.00;;;;;19.85;49.58;101447.88;4951364;28;45553;-85
2022/07/15 02:23:01;;;;;;;;;4.67;3.67;;;;;19.87;49.52;101444.22;4953124;28;45441;-85
2022/07/15 02:25:29;;;;;;;;;4.00;4.00;;;;;19.78;48.74;101439.84;4935448;28;46955;-84
2022/07/15 02:27:59;;;;;;;;;5.67;4.67;;;;;19.81;48.58;101449.72;4954081;28;45343;-84
2022/07/15 02:30:27;;;;;;;;;1.00;1.00;;;;;19.85;49.44;101445.19;4952458;28;45439;-83
2022/07/15 02:32:53;;;;;;;;;3.00;3.00;;;;;19.81;48.67;101444.31;4952224;28;45437;-84
2022/07/15 02:35:18;;;;;;;;;4.33;4.33;;;;;19.73;49.18;101441.75;4945656;28;46874;-85
2022/07/15 02:37:45;;;;;;;;;5.00;5.00;;;;;19.71;48.66;101443.56;4930803;28;45438;-85
2022/07/15 02:40:14;;;;;;;;;2.00;2.00;;;;;19.63;49.44;101428.31;4930922;28;45529;-84
2022/07/15 02:42:45;;;;;;;;;5.67;3.00;;;;;19.65;49.54;101443.56;4930926;28;45526;-85
2022/07/15 02:45:11;;;;;;;;;5.33;5.33;;;;;19.60;50.00;101445.44;4932533;28;45337;-84
2022/07/15 02:47:36;;;;;;;;;2.00;2.00;;;;;19.53;50.03;101438.31;4932689;28;45401;-85
2022/07/15 02:50:02;;;;;;;;;5.00;3.67;;;;;19.54;49.72;101442.84;4932757;28;45409;-85
2022/07/15 02:52:28;;;;;;;;;4.33;4.33;;;;;19.54;49.56;101448.22;4932019;28;45425;-84
2022/07/15 02:54:53;;;;;;;;;3.33;3.33;;;;;19.52;49.58;101448.25;4933857;28;45434;-84
2022/07/15 02:57:19;;;;;;;;;4.00;4.00;;;;;19.49;50.44;101453.69;4933356;28;45442;-84
2022/07/15 02:59:47;;;;;;;;;5.33;5.33;;;;;19.49;49.78;101452.75;4928805;28;45382;-85
2022/07/15 03:02:12;;;;;;;;;6.00;4.33;;;;;19.49;49.76;101463.56;4913256;28;45622;-84
2022/07/15 03:04:38;;;;;;;;;4.00;4.00;;;;;19.42;49.59;101454.66;4914155;28;48874;-84
2022/07/15 03:07:03;;;;;;;;;6.33;5.00;;;;;19.39;49.81;101452.88;4932224;28;45596;-84
2022/07/15 03:09:29;;;;;;;;;7.67;5.67;;;;;19.40;50.15;101464.56;4932770;28;45330;-84
2022/07/15 03:11:54;;;;;;;;;4.00;4.00;;;;;19.38;50.36;101472.66;4931283;28;45521;-83
2022/07/15 03:14:20;;;;;;;;;5.00;5.00;;;;;19.32;50.00;101470.03;4933541;28;46252;-84
2022/07/15 03:16:48;;;;;;;;;4.67;4.67;;;;;19.36;51.19;101471.78;4930552;28;45438;-84
2022/07/15 03:19:14;;;;;;;;;5.00;5.00;;;;;19.32;50.00;101480.81;4929081;28;45677;-85
2022/07/15 03:21:39;;;;;;;;;3.33;3.33;;;;;19.20;50.46;101464.78;4932363;28;45432;-85
2022/07/15 03:24:07;;;;;;;;;6.00;6.00;;;;;19.22;50.54;101475.56;4931579;28;45333;-84
2022/07/15 03:26:33;;;;;;;;;6.00;4.00;;;;;19.21;49.93;101471.03;4930425;28;44791;-84
2022/07/15 03:29:00;;;;;;;;;5.00;5.00;;;;;19.29;50.21;101477.25;4932276;28;45594;-84
2022/07/15 03:31:26;;;;;;;;;4.67;4.33;;;;;19.30;50.16;101484.44;4932230;28;45560;-85
2022/07/15 03:33:53;;;;;;;;;7.00;5.00;;;;;19.25;50.32;101467.41;4933053;28;45472;-84
2022/07/15 03:36:18;;;;;;;;;6.33;6.33;;;;;19.19;50.44;101466.59;4934270;28;45760;-85
2022/07/15 03:38:44;;;;;;;;;6.33;5.00;;;;;19.11;51.88;101456.78;4951124;28;45463;-84
2022/07/15 03:41:10;;;;;;;;;7.67;6.33;;;;;19.07;51.05;101457.72;4934428;28;45406;-84
2022/07/15 03:43:35;;;;;;;;;7.00;6.00;;;;;18.98;52.37;101451.50;4933230;28;47543;-84
2022/07/15 03:46:04;;;;;;;;;4.33;4.33;;;;;18.97;52.13;101465.88;4951241;28;45433;-83
2022/07/15 03:48:31;;;;;;;;;6.67;6.33;;;;;18.93;51.94;101464.13;4950480;28;45948;-84
2022/07/15 03:50:56;;;;;;;;;5.67;5.67;;;;;18.93;51.22;101464.13;4951395;28;45431;-85
2022/07/15 03:53:25;;;;;;;;;8.33;5.33;;;;;18.91;52.13;101457.84;4949496;28;46623;-84
2022/07/15 03:55:50;;;;;;;;;10.67;7.00;;;;;18.85;53.15;101460.59;4934403;28;45402;-83
2022/07/15 03:58:16;;;;;;;;;4.00;4.00;;;;;18.87;52.86;101472.28;4951962;28;45307;-84
2022/07/15 04:00:41;;;;;;;;;5.67;5.67;;;;;18.81;52.86;101475.03;4934769;28;45413;-85
2022/07/15 04:03:07;;;;;;;;;8.00;7.00;;;;;18.79;53.16;101460.66;4952522;28;45102;-83
2022/07/15 04:05:32;;;;;;;;;6.33;6.33;;;;;18.83;52.97;101467.81;4950938;28;44859;-84
2022/07/15 04:07:57;;;;;;;;;6.00;5.33;;;;;18.81;52.53;101479.53;4948359;28;44792;-85
2022/07/15 04:10:23;;;;;;;;;8.67;8.67;;;;;18.78;52.28;101475.91;4948099;28;45080;-84
2022/07/15 04:12:48;;;;;;;;;5.00;5.00;;;;;18.81;52.99;101479.53;4949701;28;45816;-84
2022/07/15 04:15:16;;;;;;;;;6.33;6.33;;;;;18.80;51.88;101473.22;4932258;28;45393;-85
2022/07/15 04:17:42;;;;;;;;;6.00;6.00;;;;;18.88;53.10;101482.13;4933227;28;45437;-85
2022/07/15 04:20:08;;;;;;;;;5.00;5.00;;;;;18.95;52.60;101488.38;4950446;28;45578;-85
2022/07/15 04:22:42;;;;;;;;;6.67;6.67;;;;;18.95;52.87;101483.88;4933533;28;46998;-85
2022/07/15 04:25:09;;;;;;;;;6.00;5.00;;;;;18.95;53.35;101488.38;4951458;28;45399;-84
2022/07/15 04:27:35;;;;;;;;;5.67;5.67;;;;;18.91;52.63;101484.81;4933894;28;45504;-83
2022/07/15 04:30:01;;;;;;;;;6.33;6.33;;;;;18.91;52.39;101471.34;4948702;28;45431;-84
2022/07/15 04:32:27;;;;;;;;;3.33;3.00;;;;;18.93;52.69;101485.69;4933204;28;48037;-84
2022/07/15 04:34:53;;;;;;;;;6.00;4.67;;;;;18.97;51.73;101486.56;4930039;28;45768;-84
2022/07/15 04:37:21;;;;;;;;;5.00;5.00;;;;;19.06;52.27;101481.06;4930947;28;45534;-86
2022/07/15 04:39:47;;;;;;;;;4.33;4.33;;;;;19.09;51.71;101474.78;4932108;28;45514;-84
2022/07/15 04:42:13;;;;;;;;;8.00;7.00;;;;;19.12;52.30;101489.09;4933099;28;48480;-84
2022/07/15 04:44:38;;;;;;;;;2.00;2.00;;;;;19.08;51.66;101490.03;4931146;28;45717;-85
2022/07/15 04:47:04;;;;;;;;;6.33;6.00;;;;;19.08;52.72;101497.25;4932453;28;45401;-84
2022/07/15 04:52:14;;;;;;;;;6.33;6.33;;;;;19.05;52.31;101497.28;4929735;28;44920;-85
2022/07/15 04:54:46;;;;;;;;;6.33;6.33;;;;;19.07;52.28;101490.09;4929534;28;45406;-85
2022/07/15 04:57:11;;;;;;;;;7.67;6.00;;;;;19.19;52.02;101498.94;4929238;28;45506;-85
2022/07/15 04:59:40;;;;;;;;;5.33;5.00;;;;;19.30;52.33;101498.81;4930907;28;45450;-85
2022/07/15 05:02:05;;;;;;;;;6.00;6.00;;;;;19.40;51.54;101488.84;4927945;28;47376;-84
2022/07/15 05:07:53;;;;;;;;;4.00;4.00;;;;;19.64;51.30;101498.47;4930950;28;45488;-85
2022/07/15 05:10:18;;;;;;;;;7.33;7.00;;;;;19.70;52.31;101500.22;4928857;28;45455;-85
2022/07/15 05:12:44;;;;;;;;;6.67;6.00;;;;;19.63;51.43;101499.38;4930941;28;46467;-85
2022/07/15 05:15:10;;;;;;;;;9.00;8.33;;;;;19.75;51.19;101515.47;4931990;28;45222;-84
2022/07/15 05:20:57;;;;;;;;;7.33;6.00;;;;;19.55;53.15;101504.88;4931950;28;45353;-85
2022/07/15 05:23:22;;;;;;;;;6.00;6.00;;;;;19.64;53.68;101505.69;4931653;28;47212;-85
2022/07/15 05:25:48;;;;;;;;;5.00;5.00;;;;;19.65;53.47;101519.13;4930053;28;45690;-85
2022/07/15 05:28:14;;;;;;;;;6.67;6.67;;;;;19.69;53.65;101502.03;4931073;28;45424;-85
2022/07/15 05:30:39;;;;;;;;;5.67;5.67;;;;;19.80;52.14;101517.25;4931552;28;45468;-84
2022/07/15 05:33:05;;;;;;;;;10.00;6.33;;;;;19.77;53.82;101537.94;4930899;28;46391;-84
2022/07/15 05:35:31;;;;;;;;;6.00;6.00;;;;;19.77;53.06;101524.47;4928257;28;45387;-84
2022/07/15 05:37:57;;;;;;;;;7.33;5.33;;;;;19.83;52.62;101527.97;4929043;28;45423;-84
2022/07/15 05:40:24;;;;;;;;;7.00;6.33;;;;;19.95;53.49;101535.94;4928420;28;45351;-84
2022/07/15 05:42:49;;;;;;;;;5.33;5.33;;;;;20.02;52.33;101537.66;4933551;28;45413;-85
2022/07/15 05:45:16;;;;;;;;;5.33;5.33;;;;;20.08;52.97;101529.47;4933266;28;45525;-84
2022/07/15 05:47:56;;;;;;;;;3.33;3.33;;;;;20.17;52.97;101532.03;4935113;28;45418;-85
2022/07/15 05:50:24;;;;;;;;;6.00;5.67;;;;;20.13;53.40;101534.81;4933758;28;45657;-85
2022/07/15 05:52:50;;;;;;;;;6.67;6.33;;;;;20.11;52.94;101537.53;4933267;28;47560;-85
2022/07/15 05:55:16;;;;;;;;;6.00;6.00;;;;;20.16;52.20;101538.38;4917563;28;44848;-85
2022/07/15 05:57:44;;;;;;;;;6.33;5.33;;;;;20.21;52.79;101542.81;4933492;28;45554;-85
2022/07/15 06:00:12;;;;;;;;;8.67;6.67;;;;;20.29;52.83;101543.59;4934530;28;45434;-86
2022/07/15 06:02:47;;;;;;;;;6.67;6.67;;;;;20.28;52.80;101533.69;4936477;28;45398;-85
2022/07/15 06:06:13;;;;;;;;;5.67;5.00;;;;;20.39;52.80;101534.47;4937294;28;44721;-84
2022/07/15 06:08:43;;;;;;;;;5.00;5.00;;;;;20.44;52.64;101531.69;4932856;28;45490;-85
2022/07/15 06:11:34;;;;;;;;;4.67;4.67;;;;;20.42;53.00;101538.91;4919571;28;45490;-85
2022/07/15 06:14:01;;;;;;;;;8.33;7.67;;;;;20.30;52.82;101537.28;4934441;28;45443;-85
2022/07/15 06:16:26;;;;;;;;;5.33;5.33;;;;;20.29;52.45;101528.28;4935537;28;45269;-85
2022/07/15 06:19:26;;;;;;;;;8.00;7.00;;;;;20.49;52.48;101536.13;4916240;28;45435;-86
2022/07/15 06:22:12;;;;;;;;;6.67;6.67;;;;;20.50;51.69;101505.50;4900028;28;45474;-83
2022/07/15 06:24:42;;;;;;;;;7.67;5.67;;;;;20.84;51.12;101537.41;4932292;28;47522;-84
2022/07/15 06:27:11;;;;;;;;;6.33;5.00;;;;;20.85;50.98;101533.81;4932685;28;45812;-85
2022/07/15 06:29:37;;;;;;;;;8.00;7.00;;;;;20.94;50.62;101532.75;4933399;28;45676;-86
2022/07/15 06:32:04;;;;;;;;;6.67;6.67;;;;;20.94;49.66;101522.84;4916895;28;44956;-85
2022/07/15 06:34:57;;;;;;;;;10.00;8.67;;;;;20.82;50.24;101501.41;4938037;28;45156;-85
2022/07/15 06:37:23;;;;;;;;;7.00;7.00;;;;;21.16;49.72;101550.41;4936342;28;45363;-83
2022/07/15 06:39:49;;;;;;;;;7.67;7.67;;;;;21.15;49.50;101526.13;4936875;28;45597;-84
2022/07/15 06:42:14;;;;;;;;;11.00;7.33;;;;;21.31;49.02;101548.34;4936048;28;44847;-85
2022/07/15 06:44:41;;;;;;;;;5.00;4.33;;;;;21.43;48.61;101559.03;4936505;28;47063;-86
2022/07/15 06:47:17;;;;;;;;;9.00;9.00;;;;;21.38;48.50;101532.00;4953672;28;45483;-85
2022/07/15 06:49:43;;;;;;;;;10.33;8.00;;;;;21.56;48.21;101540.75;4935902;28;45470;-85
2022/07/15 06:52:08;;;;;;;;;8.00;7.33;;;;;21.66;48.21;101550.47;4936367;28;45338;-84
2022/07/15 06:54:34;;;;;;;;;6.00;6.00;;;;;21.65;48.39;101554.09;4938240;28;45343;-85
2022/07/15 06:57:03;;;;;;;;;9.00;7.00;;;;;21.69;47.42;101553.13;4952827;28;45262;-84
2022/07/15 06:59:30;;;;;;;;;6.33;6.33;;;;;21.70;47.30;101556.72;4938441;28;44934;-83
2022/07/15 07:01:56;;;;;;;;;5.33;5.33;;;;;21.78;46.94;101543.94;4934105;28;45402;-84
2022/07/15 07:04:23;;;;;;;;;5.00;5.00;;;;;21.89;46.10;101538.28;4917127;23;45489;-86
2022/07/15 07:06:52;;;;;;;;;4.67;4.00;;;;;22.03;44.80;101547.03;4933967;28;45474;-85
2022/07/15 07:09:18;;;;;;;;;4.33;4.00;;;;;21.97;45.03;101541.72;4916713;28;45017;-84
2022/07/15 07:11:44;;;;;;;;;7.67;6.00;;;;;22.02;44.60;101517.28;4899980;28;45427;-85
2022/07/15 07:14:46;;;;;;;;;5.67;5.67;;;;;22.31;44.23;101546.47;4915982;28;46994;-85
2022/07/15 07:17:12;;;;;;;;;5.00;5.00;;;;;22.42;44.11;101554.34;4932876;28;45607;-85
2022/07/15 07:19:58;;;;;;;;;6.33;5.00;;;;;22.50;43.48;101558.72;4913087;28;45529;-84
2022/07/15 07:22:27;;;;;;;;;4.00;4.00;;;;;22.51;44.13;101543.31;4930874;28;45641;-85
2022/07/15 07:24:59;;;;;;;;;5.33;5.33;;;;;22.61;43.33;101533.16;4914806;28;47048;-84
2022/07/15 07:27:51;;;;;;;;;6.00;5.67;;;;;22.74;43.42;101537.34;4932912;28;45356;-83
2022/07/15 07:31:02;;;;;;;;;6.33;5.67;;;;;22.73;42.41;101546.44;4932784;28;45363;-84
2022/07/15 07:34:04;;;;;;;;;4.67;4.00;;;;;22.71;41.71;101545.56;4933349;28;45374;-86
2022/07/15 07:39:53;;;;;;;;;6.00;4.00;;;;;22.50;42.12;101509.91;4934746;28;45556;-85
2022/07/15 07:42:41;;;;;;;;;3.67;3.67;;;;;22.75;42.37;101544.56;4917320;28;45501;-86
2022/07/15 07:45:57;;;;;;;;;5.00;4.00;;;;;22.79;41.32;101527.31;4934388;28;45351;-84
2022/07/15 07:48:44;;;;;;;;;4.67;4.67;;;;;22.70;40.72;101516.66;4933482;28;45250;-85
2022/07/15 07:51:38;;;;;;;;;3.00;3.00;;;;;22.85;40.62;101539.81;4922318;28;45416;-85
2022/07/15 07:54:13;;;;;;;;;5.00;4.33;;;;;22.85;39.45;101537.13;4930971;28;45375;-85
2022/07/15 07:56:42;;;;;;;;;4.00;4.00;;;;;22.81;39.77;101539.00;4935373;28;45500;-85
2022/07/15 07:59:08;;;;;;;;;5.00;5.00;;;;;22.87;40.20;101536.13;4914830;28;46905;-86
2022/07/15 08:01:34;;;;;;;;;3.00;3.00;;;;;22.93;39.75;101537.81;4932469;28;45446;-85
2022/07/15 08:04:24;;;;;;;;;14.00;14.00;;;;;23.03;39.71;101542.13;4911334;29;44828;-85
2022/07/15 08:07:32;;;;;;;;;;;;;;;;;;;;;
2022/07/15 08:10:15;;;;;;;;;4.33;4.00;;;;;23.16;38.94;101515.56;4912878;28;75204;-85
2022/07/15 08:16:52;;;;;;;;;3.00;3.00;;;;;23.22;38.23;101522.66;4915247;29;45402;-87
2022/07/15 08:19:43;;;;;;;;;3.00;3.00;;;;;23.18;37.94;101527.25;4914326;28;45560;-85
2022/07/15 08:22:10;;;;;;;;;6.00;5.00;;;;;23.15;37.73;101527.34;4914490;29;46699;-87
2022/07/15 08:24:53;;;;;;;;;5.00;5.00;;;;;23.13;38.02;101537.34;4913954;29;45500;-86
2022/07/15 08:27:19;;;;;;;;;6.33;5.00;;;;;23.17;37.57;101530.91;4916149;28;45325;-85
2022/07/15 08:30:30;;;;;;;;;4.00;4.00;;;;;22.89;37.50;101498.13;4910907;29;45516;-86
2022/07/15 08:32:59;;;;;;;;;5.00;4.00;;;;;22.95;37.71;101504.28;4821983;29;47114;-86
2022/07/15 08:35:26;;;;;;;;;4.00;2.33;;;;;22.92;37.36;101501.63;4821497;29;45347;-86
2022/07/15 08:38:05;;;;;;;;;5.00;5.00;;;;;23.15;36.95;101530.94;4836834;29;44838;-86
2022/07/15 08:44:06;;;;;;;;;1.00;1.00;;;;;23.08;37.21;101517.56;4798574;29;45107;-85
2022/07/15 08:46:34;;;;;;;;;4.00;4.00;;;;;23.02;37.36;101498.75;4784277;29;45561;-85
2022/07/15 08:49:06;;;;;;;;;3.33;2.33;;;;;23.32;36.89;101525.06;4854544;29;45849;-85
2022/07/15 08:51:37;;;;;;;;;1.00;1.00;;;;;23.22;37.09;101482.81;4839378;29;45410;-87
2022/07/15 08:54:14;;;;;;;;;2.00;2.00;;;;;23.40;36.56;101510.41;4840026;29;46233;-84
2022/07/15 08:57:20;;;;;;;;;1.67;1.67;;;;;23.52;37.08;101507.34;4855247;29;44857;-84
2022/07/15 09:03:53;;;;;;;;;5.00;4.00;;;;;23.53;37.00;101462.97;4732634;30;45553;-85
2022/07/15 09:06:36;;;;;;;;;3.67;3.00;;;;;23.79;37.08;101511.16;4704891;30;45072;-85
2022/07/15 09:09:25;;;;;;;;;3.67;3.00;;;;;23.84;35.66;101502.88;4694888;30;45447;-84
2022/07/15 09:12:16;;;;;;;;;2.33;2.33;;;;;23.76;36.61;101484.94;4710106;30;45554;-83
2022/07/15 09:15:03;;;;;;;;;4.33;3.33;;;;;23.78;35.97;101495.78;4724724;30;45439;-85
2022/07/15 09:17:46;;;;;;;;;4.00;3.33;;;;;23.59;36.12;101473.66;4717156;30;47899;-85
2022/07/15 09:20:14;;;;;;;;;3.67;3.67;;;;;23.78;36.19;101486.75;4730748;30;45436;-85
2022/07/15 09:23:29;;;;;;;;;2.33;2.33;;;;;23.60;35.33;101464.59;4717209;30;45395;-86
2022/07/15 09:26:32;;;;;;;;;3.67;3.00;;;;;23.84;35.12;101506.47;4714533;30;44977;-87
2022/07/15 09:29:00;;;;;;;;;3.00;2.33;;;;;23.75;34.77;101488.59;4698748;30;45626;-85
2022/07/15 09:34:19;;;;;;;;;2.67;2.67;;;;;23.87;34.88;101492.78;4718448;29;45366;-84
2022/07/15 09:36:54;;;;;;;;;3.67;3.67;;;;;23.95;34.33;101481.72;4751593;29;45705;-85
2022/07/15 09:39:21;;;;;;;;;2.33;2.33;;;;;23.92;34.26;101465.50;4780908;29;45490;-86
2022/07/15 09:41:47;;;;;;;;;3.67;3.67;;;;;23.79;32.65;101434.22;4895467;28;45443;-86
2022/07/15 09:44:25;;;;;;;;;2.67;2.67;;;;;24.05;33.35;101502.22;4879756;29;45457;-86
2022/07/15 09:48:42;;;;;;;;;;;;;;;;;;;;;
2022/07/15 09:51:05;;;;;;;;;4.67;3.00;;;;;24.05;31.91;101499.50;4891810;29;45480;-85
2022/07/15 09:53:48;;;;;;;;;3.67;3.67;;;;;23.92;32.29;101482.69;4864511;29;45433;-84
2022/07/15 09:56:57;;;;;;;;;2.33;1.33;;;;;23.73;31.66;101440.66;4862398;29;45695;-86
2022/07/15 09:59:46;;;;;;;;;4.00;2.33;;;;;23.78;32.25;101452.34;4818914;29;44868;-85
2022/07/15 10:02:12;;;;;;;;;2.00;2.00;;;;;23.77;32.39;101453.25;4803914;29;45340;-84
2022/07/15 10:04:46;;;;;;;;;1.67;1.67;;;;;23.88;32.38;101466.53;4880899;29;45510;-84
2022/07/15 10:07:13;;;;;;;;;3.33;2.00;;;;;24.02;32.36;101498.75;4877647;29;45396;-84
2022/07/15 10:09:46;;;;;;;;;5.00;3.00;;;;;23.98;31.78;101483.47;4894457;29;45650;-85
2022/07/15 10:12:21;;;;;;;;;3.00;3.00;;;;;24.02;33.05;101485.16;4909473;29;47318;-84
2022/07/15 10:14:46;;;;;;;;;2.00;2.00;;;;;24.14;31.88;101493.81;4931298;28;45499;-83
2022/07/15 10:17:43;;;;;;;;;3.00;1.00;;;;;24.12;31.94;101495.69;4898992;29;44708;-83
2022/07/15 10:20:34;;;;;;;;;2.67;2.67;;;;;24.07;31.58;101492.19;4930155;28;45576;-83
2022/07/15 10:23:24;;;;;;;;;3.00;3.00;;;;;24.02;31.90;101463.41;4898273;29;45485;-83
2022/07/15 10:26:04;;;;;;;;;4.33;3.67;;;;;24.02;30.08;101475.16;4931329;28;45417;-84
2022/07/15 10:28:50;;;;;;;;;2.33;2.33;;;;;24.04;30.00;101476.00;4896564;29;44959;-82
2022/07/15 10:31:55;;;;;;;;;2.00;2.00;;;;;24.06;29.88;101474.13;4914226;29;45491;-83
2022/07/15 10:34:21;;;;;;;;;2.00;2.00;;;;;24.06;30.62;101456.94;4885433;29;48110;-84
2022/07/15 10:36:46;;;;;;;;;1.00;1.00;;;;;24.11;30.08;101463.13;4896491;29;45508;-84
2022/07/15 10:39:32;;;;;;;;;1.00;1.00;;;;;24.23;30.24;101475.44;4914706;29;45307;-84
2022/07/15 10:42:03;;;;;;;;;2.00;2.00;;;;;24.24;30.27;101455.47;4930312;28;45484;-82
2022/07/15 10:48:32;;;;;;;;;2.00;2.00;;;;;24.20;31.05;101426.59;4835249;29;45365;-83
2022/07/15 10:50:58;;;;;;;;;2.00;2.00;;;;;24.21;30.25;101420.25;4856593;29;45439;-83
2022/07/15 10:53:27;;;;;;;;;1.00;1.00;;;;;24.31;29.95;101430.75;4855847;29;44956;-83
2022/07/15 10:55:52;;;;;;;;;2.00;2.00;;;;;24.54;30.49;101453.63;4856691;29;45397;-83
2022/07/15 11:01:54;;;;;;;;;2.00;2.00;;;;;24.41;30.03;101409.59;4828552;29;45377;-85
2022/07/15 11:04:25;;;;;;;;;0.67;0.67;;;;;24.61;28.27;101440.72;4819801;29;45339;-83
2022/07/15 11:07:23;;;;;;;;;2.00;2.00;;;;;24.55;28.99;101436.38;4819853;29;46288;-85
2022/07/15 11:10:05;;;;;;;;;3.00;3.00;;;;;24.53;29.12;101425.53;4835207;29;45466;-84
2022/07/15 11:12:31;;;;;;;;;1.00;1.00;;;;;24.60;29.00;101444.38;4840565;29;44989;-85
2022/07/15 11:15:11;;;;;;;;;1.00;1.00;;;;;24.66;29.01;101446.88;4839141;29;45772;-85
2022/07/15 11:17:40;;;;;;;;;1.33;1.33;;;;;24.48;29.05;101413.91;4836959;29;46070;-85
2022/07/15 11:20:49;;;;;;;;;1.00;1.00;;;;;24.66;28.55;101436.00;4837377;29;44871;-86
2022/07/15 11:23:14;;;;;;;;;1.00;1.00;;;;;24.54;28.16;101426.41;4825700;29;45367;-84
2022/07/15 11:25:43;;;;;;;;;1.00;1.00;;;;;24.50;28.25;101408.44;4856354;29;45605;-84
2022/07/15 11:28:13;;;;;;;;;2.33;2.33;;;;;24.62;28.95;101431.63;4856376;29;46856;-85
2022/07/15 11:30:54;;;;;;;;;2.00;2.00;;;;;24.69;28.46;101428.63;4857792;29;45308;-86
2022/07/15 11:33:25;;;;;;;;;2.67;2.00;;;;;24.47;27.91;101378.59;4843583;29;45378;-84
2022/07/15 11:35:59;;;;;;;;;4.67;3.67;;;;;24.77;28.07;101417.50;4827207;29;45476;-86
2022/07/15 11:38:27;;;;;;;;;2.67;2.33;;;;;24.85;28.67;101430.84;4875160;29;47998;-84
2022/07/15 11:46:31;;;;;;;;;2.00;2.00;;;;;24.71;28.93;101379.63;4897508;29;45403;-85
2022/07/15 11:49:07;;;;;;;;;1.33;1.00;;;;;24.95;29.27;101407.81;4893272;29;46901;-84
2022/07/15 11:51:54;;;;;;;;;2.33;2.00;;;;;24.80;27.77;101373.84;4893691;29;46052;-85
2022/07/15 11:54:22;;;;;;;;;2.00;1.67;;;;;25.13;28.11;101409.00;4894604;29;44763;-86
2022/07/15 11:56:59;;;;;;;;;2.00;2.00;;;;;25.01;28.09;101377.66;4897500;29;45344;-86
2022/07/15 12:02:51;;;;;;;;;2.33;1.00;;;;;25.27;27.56;101406.69;4895442;29;44920;-84
2022/07/15 12:05:27;;;;;;;;;1.00;1.00;;;;;25.06;27.39;101362.03;4899185;29;45232;-86
2022/07/15 12:07:53;;;;;;;;;0.33;0.33;;;;;25.22;28.01;101369.69;4917699;28;45384;-85
2022/07/15 12:10:39;;;;;;;;;1.00;1.00;;;;;25.45;28.19;101407.84;4914706;29;45794;-85
2022/07/15 12:13:05;;;;;;;;;2.00;2.00;;;;;25.14;28.16;101368.09;4915100;29;45337;-85
2022/07/15 12:15:35;;;;;;;;;1.00;1.00;;;;;25.20;28.26;101371.53;4916895;29;45520;-84
2022/07/15 12:18:03;;;;;;;;;3.00;2.00;;;;;25.32;27.26;101380.16;4930332;28;44894;-85
2022/07/15 12:20:29;;;;;;;;;1.00;1.00;;;;;25.46;27.61;101401.44;4913922;28;45460;-85
2022/07/15 12:23:36;;;;;;;;;;;;;;;;;;;;;
2022/07/15 12:26:07;;;;;;;;;2.00;2.00;;;;;25.27;27.48;101387.63;4874653;29;68707;-86
2022/07/15 12:28:38;;;;;;;;;1.00;1.00;;;;;25.23;27.65;101372.34;4858944;29;45496;-83
2022/07/15 12:31:05;;;;;;;;;1.00;1.00;;;;;25.31;28.01;101397.47;4873535;29;45594;-84
2022/07/15 12:33:50;;;;;;;;;3.67;2.00;;;;;25.14;27.55;101362.63;4860019;29;44985;-84
2022/07/15 12:36:23;;;;;;;;;1.00;1.00;;;;;25.41;27.02;101405.28;4858754;29;45513;-85
2022/07/15 12:39:27;;;;;;;;;1.33;1.33;;;;;25.13;27.79;101360.88;4861726;29;45357;-83
2022/07/15 12:42:16;;;;;;;;;2.00;1.00;;;;;25.47;26.18;101402.31;4856215;29;45444;-84
2022/07/15 12:44:49;;;;;;;;;1.00;1.00;;;;;25.24;25.97;101365.06;4839557;29;45451;-85
2022/07/15 12:47:23;;;;;;;;;1.00;1.00;;;;;25.41;26.16;101391.66;4855813;29;45379;-84